Time;durP1;ratioP1;P1;durP2;ratioP2;P2;SDS_P1;SDS_P2;PMS_P1;PMS_P2;Temp;Humidity;BMP_temperature;BMP_pressure;BME280_temperature;BME280_humidity;BME280_pressure;Samples;Min_cycle;Max_cycle;Signal;HPM_P1;HPM_P2
2023/01/12 00:02:19;;;;;;;4.57;2.83;;;;;19.90;98366.00;;;;5014818;28;20100;-54
2023/01/12 00:04:45;;;;;;;3.88;2.20;;;;;19.90;98359.00;;;;5014658;28;20133;-54
2023/01/12 00:07:14;;;;;;;3.85;2.60;;;;;19.90;98346.00;;;;5014438;28;20041;-56
2023/01/12 00:09:41;;;;;;;4.10;2.30;;;;;19.90;98353.00;;;;5013792;28;20054;-55
2023/01/12 00:12:10;;;;;;;4.38;2.08;;;;;19.90;98335.00;;;;5014511;28;20515;-55
2023/01/12 00:14:37;;;;;;;2.33;2.10;;;;;19.90;98331.00;;;;5028212;28;20045;-55
2023/01/12 00:17:05;;;;;;;3.70;2.75;;;;;19.90;98329.00;;;;5034198;28;20488;-55
2023/01/12 00:19:32;;;;;;;4.25;2.22;;;;;19.90;98323.00;;;;5034267;28;20049;-54
2023/01/12 00:22:10;;;;;;;2.97;2.33;;;;;19.90;98325.00;;;;5034127;28;20052;-55
2023/01/12 00:24:41;;;;;;;2.78;2.08;;;;;19.90;98329.00;;;;5034242;28;20077;-55
2023/01/12 00:27:11;;;;;;;3.60;2.33;;;;;19.90;98324.00;;;;5033773;28;20038;-54
2023/01/12 00:29:37;;;;;;;3.17;2.28;;;;;19.90;98313.00;;;;5032799;28;20053;-55
2023/01/12 00:32:05;;;;;;;4.13;2.35;;;;;19.90;98314.00;;;;5032762;28;20049;-54
2023/01/12 00:34:32;;;;;;;2.75;2.17;;;;;19.90;98302.00;;;;5034021;28;20167;-55
2023/01/12 00:36:59;;;;;;;2.70;2.17;;;;;19.90;98292.00;;;;5033890;28;20081;-53
2023/01/12 00:39:26;;;;;;;3.58;2.20;;;;;19.80;98309.00;;;;5033832;28;20120;-55
2023/01/12 00:47:22;;;;;;;2.72;2.30;;;;;19.80;98319.00;;;;5033556;28;20057;-55
2023/01/12 00:49:49;;;;;;;3.13;2.28;;;;;19.80;98317.00;;;;5033614;28;20055;-54
2023/01/12 00:52:18;;;;;;;3.17;2.00;;;;;19.80;98318.00;;;;5033655;28;20450;-55
2023/01/12 00:54:56;;;;;;;2.70;2.00;;;;;19.80;98315.00;;;;5033722;28;20076;-53
2023/01/12 00:57:23;;;;;;;3.72;2.60;;;;;19.80;98322.00;;;;5033317;28;20042;-56
2023/01/12 00:59:50;;;;;;;4.70;2.70;;;;;19.80;98306.00;;;;5033548;28;20487;-54
2023/01/12 01:02:16;;;;;;;2.50;2.10;;;;;19.80;98312.00;;;;5033545;28;20064;-55
2023/01/12 01:04:43;;;;;;;4.90;2.47;;;;;19.80;98315.00;;;;5033383;28;20052;-53
2023/01/12 01:07:12;;;;;;;3.50;2.10;;;;;19.80;98311.00;;;;5032979;28;20037;-55
2023/01/12 01:09:38;;;;;;;2.80;2.03;;;;;19.80;98310.00;;;;5033289;28;20095;-54
2023/01/12 01:12:05;;;;;;;2.60;2.05;;;;;19.80;98313.00;;;;5033191;28;20042;-55
2023/01/12 01:14:31;;;;;;;3.60;2.45;;;;;19.80;98314.00;;;;5033288;28;20076;-54
2023/01/12 01:16:58;;;;;;;3.80;2.20;;;;;19.80;98323.00;;;;5033233;28;20068;-56
2023/01/12 01:19:24;;;;;;;2.63;1.90;;;;;19.80;98328.00;;;;5032802;28;20099;-54
2023/01/12 01:21:51;;;;;;;4.03;2.17;;;;;19.80;98321.00;;;;5033159;28;20121;-53
2023/01/12 01:24:17;;;;;;;2.88;1.90;;;;;19.80;98324.00;;;;5033038;28;20077;-54
2023/01/12 01:26:44;;;;;;;2.55;2.28;;;;;19.80;98322.00;;;;5032967;28;20037;-53
2023/01/12 01:29:10;;;;;;;2.78;1.92;;;;;19.80;98318.00;;;;5032952;28;20049;-54
2023/01/12 01:31:37;;;;;;;3.33;2.20;;;;;19.80;98327.00;;;;5033466;28;20057;-54
2023/01/12 01:34:03;;;;;;;2.60;1.90;;;;;19.80;98328.00;;;;5032991;28;20045;-56
2023/01/12 01:36:30;;;;;;;3.17;2.13;;;;;19.80;98329.00;;;;5031479;28;20049;-55
2023/01/12 01:38:57;;;;;;;3.03;2.08;;;;;19.80;98318.00;;;;5032960;28;20393;-54
2023/01/12 01:41:27;;;;;;;2.72;2.08;;;;;19.80;98324.00;;;;5032677;28;20052;-55
2023/01/12 01:43:59;;;;;;;3.47;1.98;;;;;19.70;98316.00;;;;5033014;28;20045;-54
2023/01/12 01:46:42;;;;;;;2.28;1.98;;;;;19.70;98316.00;;;;5032499;28;20091;-55
2023/01/12 01:49:16;;;;;;;3.17;2.20;;;;;19.70;98298.00;;;;5032659;28;20057;-54
2023/01/12 01:51:44;;;;;;;4.05;2.13;;;;;19.70;98302.00;;;;5032627;28;20045;-54
2023/01/12 01:54:12;;;;;;;3.05;2.10;;;;;19.70;98292.00;;;;5032690;28;20455;-55
2023/01/12 01:56:39;;;;;;;4.00;1.83;;;;;19.70;98291.00;;;;5032559;28;20045;-54
2023/01/12 01:59:17;;;;;;;3.08;2.13;;;;;19.70;98300.00;;;;5032625;28;20046;-55
2023/01/12 02:01:44;;;;;;;5.22;2.40;;;;;19.70;98288.00;;;;5031358;28;20056;-54
2023/01/12 02:04:11;;;;;;;2.70;1.95;;;;;19.70;98297.00;;;;5031421;28;20045;-55
2023/01/12 02:06:38;;;;;;;2.03;1.77;;;;;19.70;98301.00;;;;5031098;28;20045;-54
2023/01/12 02:09:17;;;;;;;2.25;1.70;;;;;19.70;98305.00;;;;5032543;28;20037;-54
2023/01/12 02:17:45;;;;;;;2.75;1.90;;;;;19.70;98298.00;;;;5032420;28;20049;-54
2023/01/12 02:20:17;;;;;;;;;;;;;19.70;98283.00;;;;5033177;28;20049;-55
2023/01/12 02:23:21;;;;;;;3.15;2.05;;;;;19.70;98287.00;;;;5032677;28;19971;-54
2023/01/12 02:26:03;;;;;;;3.03;1.58;;;;;19.60;98284.00;;;;5032386;28;20494;-56
2023/01/12 02:28:35;;;;;;;2.38;1.80;;;;;19.60;98290.00;;;;5032306;28;20060;-54
2023/01/12 02:31:21;;;;;;;3.70;2.55;;;;;19.60;98278.00;;;;5032356;28;20041;-54
2023/01/12 02:34:14;;;;;;;3.15;1.92;;;;;19.60;98272.00;;;;5036766;28;20050;-54
2023/01/12 02:36:54;;;;;;;2.63;1.80;;;;;19.60;98284.00;;;;5036004;28;20045;-55
2023/01/12 02:39:29;;;;;;;2.70;1.77;;;;;19.60;98271.00;;;;5035974;28;20084;-56
2023/01/12 02:44:54;;;;;;;3.17;1.70;;;;;19.60;98269.00;;;;5035801;28;20045;-54
2023/01/12 02:47:35;;;;;;;3.35;1.83;;;;;19.60;98259.00;;;;5034462;28;20045;-56
2023/01/12 02:50:08;;;;;;;3.10;2.00;;;;;19.60;98272.00;;;;5035939;28;20108;-54
2023/01/12 02:52:35;;;;;;;2.38;1.80;;;;;19.60;98269.00;;;;5036047;28;20045;-55
2023/01/12 02:55:03;;;;;;;3.03;1.75;;;;;19.60;98266.00;;;;5034459;28;20045;-55
2023/01/12 02:57:32;;;;;;;2.30;2.00;;;;;19.60;98278.00;;;;5035615;28;20041;-53
2023/01/12 03:00:00;;;;;;;2.08;1.83;;;;;19.60;98271.00;;;;5035838;28;20466;-56
2023/01/12 03:02:28;;;;;;;2.55;1.80;;;;;19.60;98265.00;;;;5035814;28;20049;-54
2023/01/12 03:04:54;;;;;;;3.20;1.92;;;;;19.60;98265.00;;;;5035457;28;20072;-53
2023/01/12 03:07:49;;;;;;;2.38;1.70;;;;;19.60;98261.00;;;;5035234;28;20130;-53
2023/01/12 03:10:28;;;;;;;2.22;1.90;;;;;19.60;98267.00;;;;5035436;28;20092;-54
2023/01/12 03:12:56;;;;;;;3.85;1.83;;;;;19.60;98257.00;;;;5035180;28;20419;-55
2023/01/12 03:15:23;;;;;;;3.72;1.75;;;;;19.60;98249.00;;;;5015288;28;20108;-56
2023/01/12 03:18:07;;;;;;;2.17;1.83;;;;;19.60;98245.00;;;;5015380;28;20411;-53
2023/01/12 03:20:38;;;;;;;2.22;1.90;;;;;19.60;98248.00;;;;5015514;28;20042;-53
2023/01/12 03:23:12;;;;;;;2.78;1.60;;;;;19.60;98254.00;;;;5015266;28;20042;-53
2023/01/12 03:25:43;;;;;;;3.65;1.77;;;;;19.60;98252.00;;;;5015733;28;20500;-55
2023/01/12 03:28:12;;;;;;;3.13;1.70;;;;;19.60;98254.00;;;;5015112;28;20053;-54
2023/01/12 03:31:07;;;;;;;2.15;1.70;;;;;19.60;98251.00;;;;5015252;28;20073;-54
2023/01/12 03:33:34;;;;;;;2.35;1.60;;;;;19.60;98254.00;;;;5013162;28;20054;-53
2023/01/12 03:36:07;;;;;;;2.95;1.65;;;;;19.60;98251.00;;;;5015089;28;20084;-53
2023/01/12 03:38:59;;;;;;;3.17;1.75;;;;;19.60;98247.00;;;;5015197;28;20416;-54
2023/01/12 03:41:47;;;;;;;3.97;1.83;;;;;19.50;98245.00;;;;5014775;28;20466;-53
2023/01/12 03:44:22;;;;;;;2.88;1.80;;;;;19.60;98242.00;;;;5014935;28;20034;-53
2023/01/12 03:47:02;;;;;;;4.05;2.20;;;;;19.60;98251.00;;;;5014902;28;20042;-54
2023/01/12 03:49:33;;;;;;;2.20;1.75;;;;;19.60;98246.00;;;;5015086;28;20463;-53
2023/01/12 03:52:02;;;;;;;2.85;1.40;;;;;19.50;98241.00;;;;5014915;28;20569;-53
2023/01/12 03:54:30;;;;;;;2.28;1.55;;;;;19.50;98240.00;;;;5014866;28;20042;-55
2023/01/12 03:56:57;;;;;;;2.20;1.60;;;;;19.50;98244.00;;;;5014622;28;20041;-52
2023/01/12 03:59:24;;;;;;;3.38;1.80;;;;;19.50;98231.00;;;;5014555;28;20053;-55
2023/01/12 04:01:50;;;;;;;3.13;1.65;;;;;19.50;98245.00;;;;5014908;28;20049;-53
2023/01/12 04:04:18;;;;;;;2.10;1.40;;;;;19.50;98248.00;;;;5014598;28;20057;-53
2023/01/12 04:06:45;;;;;;;1.75;1.50;;;;;19.50;98252.00;;;;5014486;28;20042;-52
2023/01/12 04:09:11;;;;;;;1.58;1.48;;;;;19.50;98247.00;;;;5014454;28;20100;-53
2023/01/12 04:14:23;;;;;;;3.35;1.50;;;;;19.50;98242.00;;;;5026506;28;20466;-54
2023/01/12 04:16:50;;;;;;;3.80;1.77;;;;;19.50;98238.00;;;;5034109;28;20065;-55
2023/01/12 04:19:17;;;;;;;3.83;1.70;;;;;19.50;98236.00;;;;5033835;28;20499;-56
2023/01/12 04:24:28;;;;;;;2.60;1.52;;;;;19.50;98223.00;;;;5034048;28;20042;-55
2023/01/12 04:26:55;;;;;;;2.35;1.60;;;;;19.50;98228.00;;;;5033798;28;20037;-54
2023/01/12 04:29:21;;;;;;;3.00;1.60;;;;;19.50;98233.00;;;;5033858;28;20045;-54
2023/01/12 04:31:48;;;;;;;2.58;1.67;;;;;19.50;98232.00;;;;5033815;28;20450;-55
2023/01/12 04:34:14;;;;;;;2.13;1.45;;;;;19.50;98228.00;;;;5033808;28;20454;-55
2023/01/12 04:36:42;;;;;;;2.50;1.70;;;;;19.50;98215.00;;;;5033729;28;20037;-55
2023/01/12 04:39:08;;;;;;;3.47;1.70;;;;;19.50;98216.00;;;;5033637;28;20045;-55
2023/01/12 04:41:35;;;;;;;1.77;1.50;;;;;19.50;98222.00;;;;5033787;28;20045;-56
2023/01/12 04:44:01;;;;;;;2.70;1.75;;;;;19.50;98209.00;;;;5033722;28;20037;-54
2023/01/12 04:46:27;;;;;;;1.75;1.40;;;;;19.50;98207.00;;;;5033364;28;20091;-53
2023/01/12 04:48:54;;;;;;;2.10;1.50;;;;;19.50;98206.00;;;;5033691;28;20049;-55
2023/01/12 04:51:20;;;;;;;2.22;1.50;;;;;19.50;98197.00;;;;5033349;28;20111;-56
2023/01/12 04:53:47;;;;;;;2.67;1.70;;;;;19.50;98196.00;;;;5032014;28;20053;-55
2023/01/12 04:56:14;;;;;;;3.08;1.63;;;;;19.50;98196.00;;;;5033116;28;20052;-54
2023/01/12 04:58:41;;;;;;;2.03;1.60;;;;;19.50;98199.00;;;;5033380;28;20045;-55
2023/01/12 05:01:15;;;;;;;3.20;1.70;;;;;19.50;98187.00;;;;5033278;28;20103;-55
2023/01/12 05:03:43;;;;;;;1.63;1.33;;;;;19.50;98186.00;;;;5032378;28;20045;-55
2023/01/12 05:06:10;;;;;;;3.33;1.98;;;;;19.50;98192.00;;;;5033002;28;20565;-55
2023/01/12 05:11:27;;;;;;;1.63;1.50;;;;;19.50;98185.00;;;;5033121;28;20569;-53
2023/01/12 05:13:54;;;;;;;3.17;1.50;;;;;19.40;98192.00;;;;5033331;28;20041;-55
2023/01/12 05:16:21;;;;;;;4.07;1.92;;;;;19.40;98181.00;;;;5033098;28;20045;-54
2023/01/12 05:18:49;;;;;;;2.78;1.60;;;;;19.40;98183.00;;;;5033177;28;20049;-52
2023/01/12 05:21:16;;;;;;;1.80;1.40;;;;;19.40;98169.00;;;;5031710;28;20102;-55
2023/01/12 05:23:44;;;;;;;2.85;1.33;;;;;19.40;98163.00;;;;5032997;28;20500;-53
2023/01/12 05:26:11;;;;;;;2.22;1.60;;;;;19.40;98163.00;;;;5032726;28;20466;-52
2023/01/12 05:28:37;;;;;;;3.28;1.70;;;;;19.40;98155.00;;;;5033034;28;20368;-54
2023/01/12 05:31:10;;;;;;;1.80;1.50;;;;;19.40;98144.00;;;;5032883;28;20038;-54
2023/01/12 05:33:38;;;;;;;2.25;1.58;;;;;19.40;98153.00;;;;5032908;28;20049;-54
2023/01/12 05:36:10;;;;;;;1.60;1.25;;;;;19.40;98136.00;;;;5033063;28;20091;-54
2023/01/12 05:38:36;;;;;;;1.60;1.30;;;;;19.40;98129.00;;;;5032950;28;20041;-55
2023/01/12 05:41:06;;;;;;;2.97;1.52;;;;;19.40;98121.00;;;;5032624;28;20045;-56
2023/01/12 05:43:50;;;;;;;2.05;1.35;;;;;19.50;98136.00;;;;5032768;28;20052;-55
2023/01/12 05:46:22;;;;;;;2.60;1.35;;;;;19.50;98118.00;;;;5032619;28;20128;-55
2023/01/12 05:48:51;;;;;;;1.80;1.40;;;;;19.50;98129.00;;;;5031662;28;20041;-55
2023/01/12 05:51:18;;;;;;;3.20;1.35;;;;;19.60;98126.00;;;;5031300;28;20060;-54
2023/01/12 05:53:44;;;;;;;2.55;1.30;;;;;19.60;98122.00;;;;5032703;28;20045;-55
2023/01/12 05:56:25;;;;;;;2.10;1.40;;;;;19.70;98126.00;;;;5032544;28;20041;-55
2023/01/12 05:58:57;;;;;;;1.77;1.30;;;;;19.80;98109.00;;;;5032697;28;20111;-54
2023/01/12 06:01:25;;;;;;;1.45;1.10;;;;;19.80;98110.00;;;;5032713;28;20499;-54
2023/01/12 06:03:54;;;;;;;1.90;1.58;;;;;19.90;98113.00;;;;5033035;28;20128;-56
2023/01/12 06:06:22;;;;;;;2.03;1.23;;;;;19.90;98109.00;;;;5032744;28;20060;-54
2023/01/12 06:08:51;;;;;;;1.83;1.55;;;;;20.00;98096.00;;;;5036498;28;20053;-55
2023/01/12 06:14:04;;;;;;;2.80;1.38;;;;;20.10;98099.00;;;;5036377;28;20053;-56
2023/01/12 06:16:31;;;;;;;2.35;1.42;;;;;20.10;98105.00;;;;5036420;28;20042;-56
2023/01/12 06:18:58;;;;;;;2.17;1.30;;;;;20.10;98092.00;;;;5036458;28;20048;-56
2023/01/12 06:21:24;;;;;;;2.08;1.45;;;;;20.20;98103.00;;;;5036141;28;20189;-55
2023/01/12 06:23:50;;;;;;;2.05;1.33;;;;;20.20;98108.00;;;;5036375;28;20131;-54
2023/01/12 06:26:17;;;;;;;2.33;1.27;;;;;20.20;98106.00;;;;5036287;28;20053;-54
2023/01/12 06:28:43;;;;;;;2.03;1.33;;;;;20.20;98101.00;;;;5036393;28;20041;-52
2023/01/12 06:31:12;;;;;;;2.15;1.13;;;;;20.20;98089.00;;;;5036258;28;20048;-53
2023/01/12 06:33:40;;;;;;;1.58;1.10;;;;;20.20;98100.00;;;;5036341;28;20471;-54
2023/01/12 06:36:07;;;;;;;2.08;1.40;;;;;20.20;98094.00;;;;5035816;28;20045;-54
2023/01/12 06:38:34;;;;;;;1.70;1.10;;;;;20.20;98092.00;;;;5036010;28;20037;-52
2023/01/12 06:41:05;;;;;;;1.52;1.38;;;;;20.20;98100.00;;;;5034610;28;20103;-52
2023/01/12 06:43:32;;;;;;;2.05;1.13;;;;;20.20;98091.00;;;;5036093;28;20049;-54
2023/01/12 06:45:59;;;;;;;2.38;1.40;;;;;20.20;98093.00;;;;5035957;28;20045;-54
2023/01/12 06:48:26;;;;;;;1.65;1.20;;;;;20.20;98089.00;;;;5035602;28;20446;-55
2023/01/12 06:51:04;;;;;;;2.92;1.42;;;;;20.20;98071.00;;;;5035642;28;20120;-54
2023/01/12 06:53:31;;;;;;;2.28;1.20;;;;;20.20;98086.00;;;;5036153;28;20095;-55
2023/01/12 06:55:57;;;;;;;1.85;1.40;;;;;20.20;98080.00;;;;5035567;28;20103;-56
2023/01/12 06:58:24;;;;;;;1.70;1.27;;;;;20.20;98069.00;;;;5035714;28;20491;-56
2023/01/12 07:00:50;;;;;;;1.88;1.20;;;;;20.20;98065.00;;;;5035578;28;20118;-53
2023/01/12 07:03:18;;;;;;;2.17;1.30;;;;;20.20;98063.00;;;;5035606;28;20056;-56
2023/01/12 07:05:45;;;;;;;1.30;1.10;;;;;20.20;98068.00;;;;5035421;28;20415;-56
2023/01/12 07:08:18;;;;;;;1.75;1.10;;;;;20.20;98065.00;;;;5035176;28;20045;-54
2023/01/12 07:10:45;;;;;;;1.45;1.20;;;;;20.20;98067.00;;;;5035488;28;20092;-54
2023/01/12 07:13:11;;;;;;;1.33;0.95;;;;;20.20;98072.00;;;;5034968;28;20159;-55
2023/01/12 07:15:38;;;;;;;0.98;0.90;;;;;20.20;98066.00;;;;5035722;28;20064;-55
2023/01/12 07:18:04;;;;;;;1.35;1.10;;;;;20.20;98072.00;;;;5034735;28;20124;-54
2023/01/12 07:20:32;;;;;;;2.72;1.10;;;;;20.20;98083.00;;;;5035313;28;20049;-54
2023/01/12 07:22:58;;;;;;;1.67;1.10;;;;;20.20;98079.00;;;;5035152;28;20049;-55
2023/01/12 07:25:25;;;;;;;1.17;1.00;;;;;20.20;98075.00;;;;5035134;28;20047;-55
2023/01/12 07:27:56;;;;;;;1.92;1.35;;;;;20.20;98066.00;;;;5034904;28;20038;-54
2023/01/12 07:30:24;;;;;;;2.35;1.30;;;;;20.20;98072.00;;;;5034982;28;20049;-55
2023/01/12 07:32:51;;;;;;;1.20;0.90;;;;;20.20;98079.00;;;;5034898;28;20053;-54
2023/01/12 07:35:17;;;;;;;1.23;1.00;;;;;20.20;98067.00;;;;5034830;28;20041;-56
2023/01/12 07:37:48;;;;;;;1.20;1.10;;;;;20.20;98068.00;;;;5034821;28;20554;-56
2023/01/12 07:40:15;;;;;;;1.25;1.10;;;;;20.20;98059.00;;;;5035114;28;20050;-56
2023/01/12 07:42:42;;;;;;;1.52;1.20;;;;;20.20;98060.00;;;;5034894;28;20050;-55
2023/01/12 07:45:09;;;;;;;1.40;1.13;;;;;20.20;98069.00;;;;5033324;28;20515;-56
2023/01/12 07:47:36;;;;;;;1.70;1.10;;;;;20.10;98073.00;;;;5034959;28;20041;-54
2023/01/12 07:50:03;;;;;;;1.98;1.45;;;;;20.10;98069.00;;;;5034933;28;20057;-54
2023/01/12 07:52:29;;;;;;;1.95;1.10;;;;;20.20;98059.00;;;;5035767;28;20133;-52
2023/01/12 07:54:56;;;;;;;1.50;1.10;;;;;20.20;98048.00;;;;5035223;28;20076;-52
2023/01/12 07:59:07;;;;;;;2.30;1.00;;;;;20.20;98051.00;;;;5082441;28;20348;-52
2023/01/12 08:01:34;;;;;;;4.13;1.40;;;;;20.20;98046.00;;;;5070504;28;20094;-52
2023/01/12 08:04:01;;;;;;;2.05;1.20;;;;;20.20;98054.00;;;;5070418;28;20501;-50
2023/01/12 08:06:27;;;;;;;1.60;1.33;;;;;20.20;98045.00;;;;5070038;28;20041;-52
2023/01/12 08:08:54;;;;;;;2.05;1.23;;;;;20.20;98051.00;;;;5070245;28;20033;-52
2023/01/12 08:11:21;;;;;;;2.58;0.93;;;;;20.20;98056.00;;;;5070046;28;20052;-52
2023/01/12 08:13:52;;;;;;;2.05;1.10;;;;;20.20;98074.00;;;;5077366;28;20047;-55
2023/01/12 08:16:28;;;;;;;1.42;0.90;;;;;20.20;98052.00;;;;5074921;28;20154;-62
2023/01/12 08:19:00;;;;;;;3.45;1.20;;;;;20.30;98068.00;;;;5068472;28;20044;-65
2023/01/12 08:21:35;;;;;;;3.20;1.15;;;;;20.30;98056.00;;;;5069817;28;20090;-60
2023/01/12 08:24:04;;;;;;;2.95;1.17;;;;;20.30;98060.00;;;;5070075;28;20071;-51
2023/01/12 08:26:36;;;;;;;2.20;1.10;;;;;20.30;98064.00;;;;5069663;28;20044;-61
2023/01/12 08:29:13;;;;;;;1.58;0.90;;;;;20.40;98053.00;;;;5069408;28;20048;-55
2023/01/12 08:31:40;;;;;;;1.88;0.90;;;;;20.40;98046.00;;;;5069661;28;20518;-52
2023/01/12 08:34:08;;;;;;;1.75;1.23;;;;;20.40;98051.00;;;;5069400;28;20499;-52
2023/01/12 08:36:38;;;;;;;3.65;1.10;;;;;20.40;98061.00;;;;5069096;28;20048;-58
2023/01/12 08:39:04;;;;;;;0.98;0.90;;;;;20.40;98068.00;;;;5068835;28;20498;-58
2023/01/12 08:41:31;;;;;;;4.82;1.33;;;;;20.40;98082.00;;;;5068171;28;20049;-52
2023/01/12 08:44:15;;;;;;;2.17;1.30;;;;;20.40;98078.00;;;;5068756;28;20049;-57
2023/01/12 08:46:47;;;;;;;1.13;0.98;;;;;20.40;98069.00;;;;5069090;28;20036;-53
2023/01/12 08:49:16;;;;;;;2.75;1.13;;;;;20.40;98064.00;;;;5065968;28;20041;-52
2023/01/12 08:51:43;;;;;;;1.60;1.15;;;;;20.40;98067.00;;;;5068891;28;20406;-52
2023/01/12 08:54:11;;;;;;;3.53;1.20;;;;;20.40;98069.00;;;;5068959;28;20127;-53
2023/01/12 08:56:38;;;;;;;2.42;1.10;;;;;20.50;98074.00;;;;5068787;28;20090;-52
2023/01/12 08:59:05;;;;;;;4.15;1.23;;;;;20.50;98081.00;;;;5068685;28;20556;-53
2023/01/12 09:01:32;;;;;;;1.40;1.05;;;;;20.50;98071.00;;;;5068834;28;20110;-54
2023/01/12 09:03:59;;;;;;;2.28;0.82;;;;;20.50;98078.00;;;;5068807;28;20154;-53
2023/01/12 09:06:30;;;;;;;2.65;1.30;;;;;20.40;98090.00;;;;5068397;28;20477;-53
2023/01/12 09:08:59;;;;;;;3.97;1.15;;;;;20.40;98079.00;;;;5064080;28;20045;-50
2023/01/12 09:11:27;;;;;;;2.10;1.00;;;;;20.40;98093.00;;;;5055265;28;20479;-53
2023/01/12 09:13:55;;;;;;;1.63;1.17;;;;;20.50;98093.00;;;;5063361;28;20489;-51
2023/01/12 09:16:21;;;;;;;2.63;1.02;;;;;20.50;98084.00;;;;5074031;28;20098;-51
2023/01/12 09:18:48;;;;;;;0.80;0.80;;;;;20.40;98093.00;;;;5075353;28;20558;-52
2023/01/12 09:21:17;;;;;;;2.50;1.00;;;;;20.40;98089.00;;;;5075178;28;20051;-53
2023/01/12 09:23:45;;;;;;;1.60;0.95;;;;;20.40;98081.00;;;;5035345;28;20045;-54
2023/01/12 09:26:14;;;;;;;1.45;1.33;;;;;20.40;98088.00;;;;5035017;28;20561;-53
2023/01/12 09:28:43;;;;;;;1.88;1.30;;;;;20.40;98092.00;;;;5035154;28;20111;-52
2023/01/12 09:31:12;;;;;;;2.60;1.30;;;;;20.40;98093.00;;;;5034260;28;20095;-52
2023/01/12 09:33:40;;;;;;;2.78;1.50;;;;;20.40;98090.00;;;;5035052;28;20052;-53
2023/01/12 09:36:13;;;;;;;3.63;1.60;;;;;20.40;98082.00;;;;5034979;28;20045;-54
2023/01/12 09:38:40;;;;;;;2.75;1.30;;;;;20.40;98084.00;;;;5035117;28;20053;-53
2023/01/12 09:47:47;;;;;;;2.25;1.80;;;;;20.40;98102.00;;;;4995391;28;20042;-53
2023/01/12 09:50:21;;;;;;;4.20;1.67;;;;;20.40;98098.00;;;;4995824;28;20491;-53
2023/01/12 09:53:00;;;;;;;3.47;1.50;;;;;20.40;98104.00;;;;4994149;28;20058;-54
2023/01/12 09:55:42;;;;;;;2.80;1.60;;;;;20.40;98107.00;;;;4995274;28;20053;-55
2023/01/12 09:58:24;;;;;;;4.85;2.28;;;;;20.40;98103.00;;;;5014556;28;20077;-54
2023/01/12 10:00:53;;;;;;;4.18;1.95;;;;;20.40;98093.00;;;;5015342;28;20074;-50
2023/01/12 10:03:25;;;;;;;3.35;1.42;;;;;20.40;98100.00;;;;5016832;28;20128;-51
2023/01/12 10:05:56;;;;;;;2.25;1.63;;;;;20.40;98109.00;;;;5016373;28;20050;-52
2023/01/12 10:08:35;;;;;;;3.80;2.03;;;;;20.40;98100.00;;;;5016736;28;20042;-53
2023/01/12 10:11:40;;;;;;;4.80;1.77;;;;;20.40;98101.00;;;;5016790;28;20107;-51
2023/01/12 10:14:32;;;;;;;3.70;1.70;;;;;20.40;98097.00;;;;4996300;28;20061;-51
2023/01/12 10:17:12;;;;;;;4.18;1.70;;;;;20.30;98089.00;;;;5036902;28;20045;-51
2023/01/12 10:19:55;;;;;;;4.30;1.60;;;;;20.30;98094.00;;;;5036629;28;20451;-54
2023/01/12 10:22:36;;;;;;;4.10;1.50;;;;;20.30;98087.00;;;;5034415;28;20116;-53
2023/01/12 10:25:07;;;;;;;2.00;1.30;;;;;20.30;98085.00;;;;5036502;28;20045;-52
2023/01/12 10:27:39;;;;;;;2.72;1.50;;;;;20.30;98088.00;;;;5037252;28;20495;-53
2023/01/12 10:30:17;;;;;;;4.22;2.00;;;;;20.30;98087.00;;;;5036748;28;20506;-53
2023/01/12 10:32:43;;;;;;;2.47;1.60;;;;;20.30;98095.00;;;;5037861;28;20046;-54
2023/01/12 10:35:16;;;;;;;3.05;1.40;;;;;20.30;98095.00;;;;5035963;28;20568;-52
2023/01/12 10:37:54;;;;;;;2.85;1.50;;;;;20.30;98093.00;;;;5033974;28;20037;-54
2023/01/12 10:40:30;;;;;;;1.80;1.25;;;;;20.30;98085.00;;;;5026134;28;20041;-55
2023/01/12 10:43:17;;;;;;;3.30;1.48;;;;;20.30;98083.00;;;;5028766;28;20058;-52
2023/01/12 10:46:03;;;;;;;1.88;1.30;;;;;20.30;98089.00;;;;5014330;28;20046;-52
2023/01/12 10:48:31;;;;;;;2.67;1.27;;;;;20.30;98084.00;;;;5014035;28;20060;-52
2023/01/12 10:51:04;;;;;;;3.03;1.40;;;;;20.30;98085.00;;;;5011902;28;20049;-52
2023/01/12 10:53:53;;;;;;;2.80;1.23;;;;;20.30;98088.00;;;;5013597;28;20057;-51
2023/01/12 10:56:28;;;;;;;2.78;1.30;;;;;20.30;98081.00;;;;5009022;28;20066;-51
2023/01/12 10:59:02;;;;;;;2.25;1.60;;;;;20.30;98075.00;;;;5012289;28;20045;-52
2023/01/12 11:02:04;;;;;;;3.10;1.40;;;;;20.30;98077.00;;;;5013465;28;20049;-51
2023/01/12 11:04:37;;;;;;;2.35;1.23;;;;;20.20;98068.00;;;;5001561;28;20500;-52
2023/01/12 11:07:12;;;;;;;4.38;1.35;;;;;20.20;98076.00;;;;5013333;28;20041;-53
2023/01/12 11:09:40;;;;;;;1.60;1.10;;;;;20.20;98080.00;;;;5014487;28;20045;-52
2023/01/12 11:12:26;;;;;;;2.25;1.10;;;;;20.30;98078.00;;;;5013893;28;20169;-51
2023/01/12 11:15:13;;;;;;;2.70;1.27;;;;;20.30;98056.00;;;;5013708;28;20050;-52
2023/01/12 11:17:59;;;;;;;2.45;1.30;;;;;20.20;98062.00;;;;5013656;28;20562;-54
2023/01/12 11:20:40;;;;;;;1.75;1.30;;;;;20.20;98070.00;;;;5013763;28;20053;-53
2023/01/12 11:23:15;;;;;;;2.25;1.38;;;;;20.20;98062.00;;;;5012308;28;20397;-54
2023/01/12 11:25:48;;;;;;;4.25;1.20;;;;;20.30;98052.00;;;;5013577;28;20045;-54
2023/01/12 11:28:26;;;;;;;1.35;1.25;;;;;20.30;98054.00;;;;5013450;28;20068;-53
2023/01/12 11:30:59;;;;;;;2.15;1.25;;;;;20.30;98042.00;;;;5013538;28;20505;-51
2023/01/12 11:33:56;;;;;;;2.28;1.50;;;;;20.30;98032.00;;;;5013222;28;20046;-53
2023/01/12 11:36:36;;;;;;;2.13;1.70;;;;;20.30;98033.00;;;;5013386;28;20100;-53
2023/01/12 11:39:12;;;;;;;1.25;1.15;;;;;20.30;98035.00;;;;5012127;28;20046;-55
2023/01/12 11:43:47;;;;;;;2.00;1.05;;;;;20.30;98027.00;;;;5013601;28;20080;-51
2023/01/12 11:44:42;;;;;;;4.85;1.38;;;;;20.30;98022.00;;;;5013493;28;20415;-52
2023/01/12 11:47:14;;;;;;;1.40;1.30;;;;;20.30;98023.00;;;;5012024;28;20045;-51
2023/01/12 11:49:43;;;;;;;1.85;1.23;;;;;20.30;98008.00;;;;5013259;28;20436;-51
2023/01/12 11:52:12;;;;;;;1.50;1.00;;;;;20.30;98032.00;;;;5013179;28;20058;-51
2023/01/12 11:54:39;;;;;;;2.00;1.20;;;;;20.30;98012.00;;;;5013333;28;20075;-51
2023/01/12 11:57:34;;;;;;;2.15;1.23;;;;;20.30;98006.00;;;;5012736;28;20096;-51
2023/01/12 12:00:05;;;;;;;2.95;1.40;;;;;20.30;98012.00;;;;5013369;28;20121;-53
2023/01/12 12:02:44;;;;;;;2.33;1.30;;;;;20.30;98008.00;;;;5013324;28;20526;-54
2023/01/12 12:05:32;;;;;;;2.10;1.13;;;;;20.20;97992.00;;;;5012948;28;20088;-54
2023/01/12 12:08:11;;;;;;;3.15;1.52;;;;;20.30;98008.00;;;;5013122;28;20042;-52
2023/01/12 12:10:49;;;;;;;3.38;1.40;;;;;20.30;98005.00;;;;5013181;28;20069;-52
2023/01/12 12:13:22;;;;;;;1.20;1.10;;;;;20.30;98006.00;;;;5015467;28;20049;-49
2023/01/12 12:15:53;;;;;;;2.03;1.33;;;;;20.30;98003.00;;;;5032801;28;20049;-51
2023/01/12 12:18:34;;;;;;;2.10;1.40;;;;;20.30;98013.00;;;;5032506;28;20046;-57
2023/01/12 12:21:29;;;;;;;2.30;1.27;;;;;20.30;98016.00;;;;5032633;28;20557;-54
2023/01/12 12:24:09;;;;;;;1.27;0.90;;;;;20.30;98007.00;;;;5032826;28;20115;-55
2023/01/12 12:26:41;;;;;;;2.42;1.25;;;;;20.40;98003.00;;;;5032653;28;21008;-51
2023/01/12 12:29:16;;;;;;;2.45;1.20;;;;;20.40;98010.00;;;;5032594;28;20045;-50
2023/01/12 12:32:03;;;;;;;2.50;1.35;;;;;20.40;98003.00;;;;5032933;28;20045;-51
2023/01/12 12:35:21;;;;;;;2.00;1.10;;;;;20.50;98004.00;;;;5032868;28;20065;-54
2023/01/12 12:38:07;;;;;;;2.22;1.40;;;;;20.50;98004.00;;;;5031293;28;20054;-50
2023/01/12 12:47:05;;;;;;;4.53;1.20;;;;;20.40;98008.00;;;;5036633;28;20403;-49
2023/01/12 12:49:34;;;;;;;5.68;1.30;;;;;20.40;97994.00;;;;5036571;28;20046;-49
2023/01/12 12:52:01;;;;;;;1.85;1.20;;;;;20.40;98000.00;;;;5036663;28;20041;-49
2023/01/12 12:54:29;;;;;;;3.55;1.17;;;;;20.40;97999.00;;;;5036708;28;20076;-49
2023/01/12 12:56:56;;;;;;;3.22;0.90;;;;;20.40;97995.00;;;;5036269;28;20503;-48
2023/01/12 12:59:32;;;;;;;1.17;0.98;;;;;20.40;97986.00;;;;5035218;28;20053;-49
2023/01/12 13:02:00;;;;;;;2.97;1.40;;;;;20.40;98000.00;;;;5036235;28;20068;-48
2023/01/12 13:04:42;;;;;;;2.88;1.08;;;;;20.30;97988.00;;;;5036375;28;20518;-48
2023/01/12 13:07:17;;;;;;;3.50;1.20;;;;;20.30;97994.00;;;;5034851;28;20498;-48
2023/01/12 13:09:44;;;;;;;3.28;0.93;;;;;20.30;97986.00;;;;5037108;28;20072;-50
2023/01/12 13:12:11;;;;;;;0.68;0.60;;;;;20.30;97991.00;;;;5036606;28;20045;-50
2023/01/12 13:14:41;;;;;;;1.42;0.90;;;;;20.30;97986.00;;;;5022422;28;20100;-48
2023/01/12 13:17:17;;;;;;;3.03;1.00;;;;;20.30;97992.00;;;;5016578;28;20050;-50
2023/01/12 13:19:54;;;;;;;1.48;0.77;;;;;20.30;97992.00;;;;5016978;28;20045;-50
2023/01/12 13:22:38;;;;;;;4.13;1.13;;;;;20.20;97988.00;;;;5016275;28;20057;-50